Aérodrome :
LOGIN :

S'inscrire | Disclaimer

   EN    FR    IT 

 










Légende :    VFR   VFR Marginal   IFR   IFR Intensif   IFR Très Intensif
Visi : 
Plafond : 
>= 8 km
>= 3000ft
5 à 8 km
1000 à 3000 ft
1500m à 5 km
500 à 1000 ft
800 à 1500m
200 à 500 ft
< 800m
< 200 ft
Symboles :   Orages  Brouillard  Fortes neiges  Fortes précipitations  Vent > 20 kt
SIGMETs :   Divers  Orages  Givrage  Turbulence  Onde Orograph.  Cendres Volcan.






- Altitude de l'aérodrome : 545 ft
- Code IATA : PZY


LZPP - Piešťany

DERNIER METAR :
  • 210930Z VRB02KT 9999 FEW037 28/19 Q1009

METARs EXPIRÉS :
  • 210900Z VRB03KT 9999 FEW033 27/18 Q1009
  • 210830Z VRB02KT 9999 FEW030 26/18 Q1009
  • 210800Z VRB02KT 9999 FEW027 25/19 Q1009
  • 210730Z 34004KT 230V030 9999 FEW023 25/18 Q1009
  • 210700Z VRB02KT 9999 FEW020 23/19 Q1009
  • 210630Z VRB02KT CAVOK 22/19 Q1009
  • 210600Z VRB02KT CAVOK 21/18 Q1009
  • 210530Z 29003KT 240V330 CAVOK 21/18 Q1009
  • 210500Z VRB01KT CAVOK 20/18 Q1009

TAF TAF LZPP
Valide du 21 à 09h jusqu'au 21 à 18h UTC


210815Z 2109/2118 VRB02KT CAVOK
TEMPO 2110/2116 30007KT



MET'MAP, la Météo Aéronautique d'un coup d'oeil ! - Copyright ORBIFLY Décembre 2007 - Disclaimer

ORBIFLY MET'MAP TEAM :

Programmation & Développement : Alexandra Zaïnal
Sur une idée originale de : Baudouin d'Aumeries
Soutien technique & logistique : Manuel Goepfert
Assistance : Marc-Olivier Méhu




SOURCES & CREDITS :

   NOAA